createdAt,value
2023-01-13T00:01:58.940Z,10.15
2023-01-13T00:04:26.703Z,9.20
2023-01-13T00:06:53.956Z,9.90
2023-01-13T00:09:22.807Z,9.18
2023-01-13T00:11:49.901Z,8.52
2023-01-13T00:14:19.476Z,9.43
2023-01-13T00:16:46.337Z,9.45
2023-01-13T00:19:19.947Z,9.07
2023-01-13T00:21:52.213Z,9.15
2023-01-13T00:24:21.853Z,9.45
2023-01-13T00:26:50.094Z,9.55
2023-01-13T00:29:20.204Z,8.68
2023-01-13T00:31:51.768Z,8.93
2023-01-13T00:34:22.009Z,9.50
2023-01-13T00:36:54.661Z,9.10
2023-01-13T00:39:22.805Z,9.40
2023-01-13T00:42:08.103Z,8.77
2023-01-13T00:44:34.966Z,9.10
2023-01-13T00:47:05.815Z,9.23
2023-01-13T00:49:33.856Z,9.60
2023-01-13T00:52:16.157Z,9.23
2023-01-13T00:57:11.004Z,8.30
2023-01-13T00:59:44.501Z,8.13
2023-01-13T01:02:14.567Z,8.35
2023-01-13T01:04:41.542Z,8.40
2023-01-13T01:07:08.902Z,8.10
2023-01-13T01:09:39.569Z,7.93
2023-01-13T01:12:07.530Z,8.40
2023-01-13T01:14:39.150Z,8.20
2023-01-13T01:17:06.587Z,7.70
2023-01-13T01:19:33.466Z,7.78
2023-01-13T01:22:02.745Z,8.35
2023-01-13T01:24:32.086Z,5.97
2023-01-13T01:26:59.830Z,6.70
2023-01-13T01:29:29.949Z,7.47
2023-01-13T01:31:59.297Z,7.72
2023-01-13T01:34:28.784Z,9.38
2023-01-13T01:36:55.708Z,9.40
2023-01-13T01:39:22.504Z,8.48
2023-01-13T01:42:08.076Z,8.35
2023-01-13T01:44:43.863Z,9.50
2023-01-13T01:47:14.255Z,9.23
2023-01-13T01:49:48.379Z,9.45
2023-01-13T01:52:30.046Z,9.20
2023-01-13T01:55:06.959Z,9.67
2023-01-13T01:57:40.134Z,8.88
2023-01-13T02:00:10.772Z,6.40
2023-01-13T02:02:41.056Z,9.15
2023-01-13T02:05:10.939Z,9.63
2023-01-13T02:07:45.129Z,8.80
2023-01-13T02:10:20.266Z,9.02
2023-01-13T02:12:48.675Z,6.40
2023-01-13T02:15:35.676Z,9.20
2023-01-13T02:18:02.885Z,8.38
2023-01-13T02:20:54.390Z,7.38
2023-01-13T02:24:26.650Z,6.53
2023-01-13T02:27:14.439Z,8.30
2023-01-13T02:30:29.970Z,7.10
2023-01-13T02:33:12.997Z,9.02
2023-01-13T02:35:54.194Z,8.68
2023-01-13T02:38:29.031Z,8.68
2023-01-13T02:41:27.784Z,8.35
2023-01-13T02:44:07.822Z,9.68
2023-01-13T02:46:43.422Z,9.00
2023-01-13T02:49:26.904Z,9.65
2023-01-13T02:51:56.834Z,8.82
2023-01-13T02:54:29.385Z,9.20
2023-01-13T02:56:58.919Z,9.02
2023-01-13T02:59:27.987Z,9.45
2023-01-13T03:01:58.100Z,10.07
2023-01-13T03:04:57.273Z,9.02
2023-01-13T03:07:42.955Z,9.10
2023-01-13T03:10:15.894Z,9.27
2023-01-13T03:13:41.953Z,7.63
2023-01-13T03:16:10.395Z,6.65
2023-01-13T03:19:16.138Z,6.35
2023-01-13T03:22:25.573Z,8.10
2023-01-13T03:25:01.190Z,7.80
2023-01-13T03:27:52.075Z,8.77
2023-01-13T03:30:53.632Z,8.40
2023-01-13T03:33:27.333Z,6.68
2023-01-13T03:36:00.941Z,6.20
2023-01-13T03:38:42.455Z,5.82
2023-01-13T03:41:28.018Z,6.97
2023-01-13T03:44:25.737Z,7.85
2023-01-13T03:47:30.808Z,5.80
2023-01-13T03:50:42.461Z,5.75
2023-01-13T03:53:20.575Z,6.90
2023-01-13T03:56:05.923Z,5.68
2023-01-13T03:58:49.502Z,7.80
2023-01-13T04:01:27.060Z,6.65
2023-01-13T04:04:24.520Z,7.10
2023-01-13T04:07:26.640Z,7.20
2023-01-13T04:09:56.798Z,7.03
2023-01-13T04:12:27.409Z,7.28
2023-01-13T04:14:56.864Z,6.50
2023-01-13T04:17:30.552Z,7.18
2023-01-13T04:19:59.758Z,7.15
2023-01-13T04:22:30.686Z,6.43
2023-01-13T04:25:08.073Z,7.25
2023-01-13T04:27:43.693Z,6.65
2023-01-13T04:30:11.413Z,6.85
2023-01-13T04:32:38.194Z,6.25
2023-01-13T04:35:18.009Z,6.30
2023-01-13T04:37:51.100Z,7.05
2023-01-13T04:40:20.731Z,6.85
2023-01-13T04:42:52.736Z,6.75
2023-01-13T04:45:31.232Z,7.03
2023-01-13T04:47:58.785Z,6.97
2023-01-13T04:50:30.910Z,6.68
2023-01-13T04:53:06.641Z,7.28
2023-01-13T04:55:36.247Z,5.00
2023-01-13T04:58:07.964Z,7.03
2023-01-13T05:00:40.219Z,7.07
2023-01-13T05:03:07.400Z,7.50
2023-01-13T05:05:43.402Z,7.95
2023-01-13T05:08:11.593Z,7.38
2023-01-13T05:10:43.762Z,7.68
2023-01-13T05:13:31.498Z,7.93
2023-01-13T05:16:35.813Z,7.47
2023-01-13T05:19:06.789Z,8.15
2023-01-13T05:21:58.302Z,8.60
2023-01-13T05:24:44.190Z,8.63
2023-01-13T05:27:15.112Z,9.25
2023-01-13T05:50:33.669Z,10.95
2023-01-13T05:56:28.798Z,11.90
2023-01-13T06:22:49.515Z,13.90
2023-01-13T06:36:01.426Z,12.80
2023-01-13T06:38:31.520Z,17.92
2023-01-13T06:41:00.748Z,17.70
2023-01-13T06:50:42.544Z,20.00
2023-01-13T06:53:10.014Z,21.25
2023-01-13T06:55:37.131Z,20.58
2023-01-13T06:58:16.071Z,21.20
2023-01-13T07:08:28.885Z,22.75
2023-01-13T07:18:42.769Z,21.30
2023-01-13T07:21:13.290Z,21.27
2023-01-13T07:29:56.840Z,22.25
2023-01-13T07:32:33.958Z,22.60
2023-01-13T07:35:11.626Z,22.65
2023-01-13T07:37:39.831Z,23.38
2023-01-13T07:43:36.739Z,24.65
2023-01-13T07:46:13.458Z,23.10
2023-01-13T07:48:40.928Z,23.95
2023-01-13T07:51:11.825Z,24.80
2023-01-13T07:53:39.078Z,21.35
2023-01-13T07:56:10.733Z,23.20
2023-01-13T07:58:37.994Z,25.60
2023-01-13T08:01:20.291Z,19.65
2023-01-13T08:07:42.509Z,16.52
2023-01-13T08:10:17.602Z,24.00
2023-01-13T08:13:03.828Z,24.17
2023-01-13T08:19:38.430Z,24.30
2023-01-13T08:22:09.362Z,23.83
2023-01-13T08:24:36.164Z,24.13
2023-01-13T08:27:02.835Z,22.75
2023-01-13T08:33:26.559Z,23.13
2023-01-13T08:36:05.088Z,22.25
2023-01-13T08:38:32.515Z,22.05
2023-01-13T08:51:59.038Z,22.48
2023-01-13T09:12:51.531Z,23.17
2023-01-13T09:22:27.661Z,17.90
2023-01-13T09:24:57.597Z,21.45
2023-01-13T09:27:25.076Z,15.00
2023-01-13T09:29:51.814Z,22.85
2023-01-13T09:36:30.285Z,16.00
2023-01-13T09:38:59.758Z,15.30
2023-01-13T09:42:03.327Z,16.50
2023-01-13T09:44:41.525Z,15.93
2023-01-13T09:47:20.419Z,21.52
2023-01-13T10:00:39.618Z,22.55
2023-01-13T10:03:15.537Z,23.73
2023-01-13T10:06:01.155Z,18.23
2023-01-13T10:08:41.967Z,18.17
2023-01-13T10:14:42.148Z,15.82
2023-01-13T10:17:18.833Z,18.73
2023-01-13T10:33:28.688Z,21.35
2023-01-13T10:36:02.808Z,23.58
2023-01-13T10:38:29.891Z,23.25
2023-01-13T10:41:04.867Z,23.65
2023-01-13T10:43:32.171Z,25.08
2023-01-13T10:46:24.386Z,24.85
2023-01-13T10:52:58.469Z,21.50
2023-01-13T11:26:27.604Z,17.13
2023-01-13T11:29:21.044Z,20.35
2023-01-13T11:35:20.665Z,21.13
2023-01-13T11:38:02.964Z,18.05
2023-01-13T11:44:17.169Z,16.83
2023-01-13T12:04:25.841Z,16.00
2023-01-13T12:07:14.336Z,21.65
2023-01-13T12:10:18.209Z,17.90
2023-01-13T12:12:47.619Z,16.38
2023-01-13T12:15:46.909Z,15.95
2023-01-13T12:18:39.692Z,15.73
2023-01-13T12:21:15.165Z,23.65
2023-01-13T12:24:06.184Z,18.23
2023-01-13T12:26:45.866Z,18.10
2023-01-13T12:29:24.668Z,15.82
2023-01-13T12:31:55.635Z,16.45
2023-01-13T12:34:50.685Z,16.48
2023-01-13T12:37:44.983Z,17.45
2023-01-13T12:40:25.701Z,26.75
2023-01-13T12:43:39.978Z,27.10
2023-01-13T12:46:28.916Z,17.60
2023-01-13T12:49:07.812Z,18.73
2023-01-13T12:51:55.649Z,26.83
2023-01-13T12:54:58.060Z,26.77
2023-01-13T12:57:36.833Z,27.30
2023-01-13T13:00:03.580Z,27.35
2023-01-13T13:02:35.745Z,19.90
2023-01-13T13:05:28.920Z,24.58
2023-01-13T13:08:31.477Z,27.67
2023-01-13T13:11:46.007Z,30.35
2023-01-13T13:14:14.461Z,20.35
2023-01-13T13:16:52.845Z,28.13
2023-01-13T13:19:21.318Z,25.75
2023-01-13T13:22:08.774Z,26.75
2023-01-13T13:24:35.798Z,28.65
2023-01-13T13:27:20.069Z,27.40
2023-01-13T13:29:59.919Z,28.10
2023-01-13T13:32:41.786Z,26.88
2023-01-13T13:35:17.701Z,27.33
2023-01-13T13:38:37.449Z,26.95
2023-01-13T13:41:46.792Z,26.83
2023-01-13T13:44:36.665Z,25.88
2023-01-13T13:47:06.996Z,26.40
2023-01-13T13:49:51.720Z,26.55
2023-01-13T13:52:39.375Z,27.33
2023-01-13T13:55:18.831Z,26.65
2023-01-13T13:57:58.733Z,25.63
2023-01-13T14:00:42.410Z,26.20
2023-01-13T14:03:25.545Z,28.35
2023-01-13T14:06:03.247Z,28.27
2023-01-13T14:08:36.053Z,26.85
2023-01-13T14:11:32.575Z,26.75
2023-01-13T14:14:17.010Z,27.10
2023-01-13T14:16:51.374Z,28.92
2023-01-13T14:19:35.265Z,28.83
2023-01-13T14:22:23.513Z,28.25
2023-01-13T14:24:55.761Z,24.77
2023-01-13T14:27:35.415Z,24.35
2023-01-13T14:30:10.006Z,29.80
2023-01-13T14:32:47.998Z,27.90
2023-01-13T14:35:17.864Z,22.33
2023-01-13T14:37:52.852Z,28.50
2023-01-13T14:40:49.756Z,22.77
2023-01-13T14:43:28.755Z,30.20
2023-01-13T14:46:04.016Z,29.55
2023-01-13T14:48:36.141Z,29.60
2023-01-13T14:51:17.339Z,29.42
2023-01-13T14:53:47.272Z,22.17
2023-01-13T14:56:48.151Z,29.88
2023-01-13T15:00:02.914Z,28.73
2023-01-13T15:02:36.531Z,27.40
2023-01-13T15:05:31.023Z,19.60
2023-01-13T15:08:16.639Z,23.50
2023-01-13T15:11:00.044Z,29.67
2023-01-13T15:13:53.188Z,25.60
2023-01-13T15:16:33.958Z,20.75
2023-01-13T15:19:03.612Z,22.23
2023-01-13T15:21:30.356Z,26.20
2023-01-13T15:23:59.880Z,30.17
2023-01-13T15:26:36.364Z,21.92
2023-01-13T15:29:03.887Z,29.88
2023-01-13T15:31:32.441Z,22.65
2023-01-13T15:34:00.578Z,29.58
2023-01-13T15:36:35.657Z,28.00
2023-01-13T15:39:08.647Z,29.50
2023-01-13T15:41:54.722Z,29.65
2023-01-13T15:44:41.453Z,29.15
2023-01-13T15:47:14.768Z,27.50
2023-01-13T15:49:53.467Z,23.08
2023-01-13T15:52:25.018Z,28.05
2023-01-13T15:55:04.102Z,32.75
2023-01-13T15:57:41.092Z,30.92
2023-01-13T16:00:22.970Z,32.88
2023-01-13T16:02:56.274Z,28.58
2023-01-13T16:05:37.918Z,28.33
2023-01-13T16:08:05.008Z,34.20
2023-01-13T16:10:35.412Z,35.42
2023-01-13T16:13:13.055Z,32.72
2023-01-13T16:15:47.664Z,34.33
2023-01-13T16:18:34.684Z,34.08
2023-01-13T16:21:03.484Z,33.83
2023-01-13T16:23:39.965Z,35.33
2023-01-13T16:26:24.409Z,34.45
2023-01-13T16:28:59.203Z,24.35
2023-01-13T16:31:39.672Z,29.55
2023-01-13T16:34:15.368Z,36.25
2023-01-13T16:36:50.957Z,36.60
2023-01-13T16:39:23.996Z,36.00
2023-01-13T16:41:50.904Z,35.10
2023-01-13T16:44:29.026Z,33.65
2023-01-13T16:47:07.787Z,36.28
2023-01-13T16:49:34.763Z,35.75
2023-01-13T16:52:01.555Z,34.85
2023-01-13T16:54:29.029Z,35.55
2023-01-13T16:57:05.510Z,35.47
2023-01-13T16:59:32.245Z,36.40
2023-01-13T17:01:59.463Z,35.70
2023-01-13T17:04:29.910Z,37.75
2023-01-13T17:07:06.242Z,37.72
2023-01-13T17:09:39.373Z,36.17
2023-01-13T17:12:06.484Z,37.78
2023-01-13T17:14:33.356Z,38.60
2023-01-13T17:17:00.537Z,39.67
2023-01-13T17:19:39.297Z,39.90
2023-01-13T17:22:06.127Z,40.10
2023-01-13T17:24:35.411Z,40.30
2023-01-13T17:27:13.920Z,40.22
2023-01-13T17:29:41.430Z,43.55
2023-01-13T17:32:17.644Z,41.20
2023-01-13T17:34:45.226Z,41.90
2023-01-13T17:37:18.129Z,39.53
2023-01-13T17:39:51.383Z,43.08
2023-01-13T17:42:18.662Z,38.08
2023-01-13T17:44:47.012Z,43.25
2023-01-13T17:47:21.581Z,40.83
2023-01-13T17:49:50.480Z,35.08
2023-01-13T17:52:17.636Z,43.08
2023-01-13T17:54:50.968Z,41.92
2023-01-13T17:57:29.881Z,42.30
2023-01-13T18:00:14.715Z,29.85
2023-01-13T18:02:43.791Z,41.30
2023-01-13T18:05:10.720Z,42.75
2023-01-13T18:07:43.691Z,42.60
2023-01-13T18:10:14.475Z,44.15
2023-01-13T18:12:54.918Z,42.05
2023-01-13T18:15:26.588Z,41.10
2023-01-13T18:17:55.644Z,40.90
2023-01-13T18:20:42.564Z,41.28
2023-01-13T18:23:39.363Z,40.28
2023-01-13T18:26:54.392Z,40.05
2023-01-13T18:29:39.420Z,40.70
2023-01-13T18:32:09.710Z,41.05
2023-01-13T18:34:58.695Z,41.08
2023-01-13T18:40:33.658Z,40.30
2023-01-13T18:43:06.377Z,40.60
2023-01-13T18:45:51.795Z,39.30
2023-01-13T18:48:27.783Z,41.88
2023-01-13T18:51:02.776Z,39.45
2023-01-13T18:53:36.335Z,31.98
2023-01-13T18:56:24.723Z,38.88
2023-01-13T18:59:07.817Z,39.63
2023-01-13T19:01:49.812Z,38.20
2023-01-13T19:04:32.565Z,40.40
2023-01-13T19:07:15.379Z,40.03
2023-01-13T19:10:00.114Z,38.90
2023-01-13T19:12:46.430Z,38.65
2023-01-13T19:15:26.050Z,39.22
2023-01-13T19:18:01.566Z,40.58
2023-01-13T19:20:39.213Z,37.90
2023-01-13T19:23:18.802Z,33.03
2023-01-13T19:25:47.786Z,39.78
2023-01-13T19:28:29.119Z,40.35
2023-01-13T19:31:14.734Z,37.90
2023-01-13T19:33:51.613Z,39.10
2023-01-13T19:36:36.660Z,39.10
2023-01-13T19:39:15.092Z,40.65
2023-01-13T19:42:09.331Z,37.72
2023-01-13T19:45:00.216Z,38.63
2023-01-13T19:47:45.906Z,39.35
2023-01-13T19:50:15.932Z,37.72
2023-01-13T19:52:51.259Z,42.13
2023-01-13T19:55:22.508Z,38.78
2023-01-13T19:58:02.951Z,40.17
2023-01-13T20:00:42.107Z,41.85
2023-01-13T20:03:22.501Z,34.55
2023-01-13T20:06:03.331Z,42.13
2023-01-13T20:08:36.839Z,41.13
2023-01-13T20:11:22.992Z,40.60
2023-01-13T20:13:52.214Z,41.83
2023-01-13T20:16:19.285Z,41.92
2023-01-13T20:19:01.567Z,41.85
2023-01-13T20:21:37.887Z,36.30
2023-01-13T20:24:13.104Z,40.70
2023-01-13T20:26:52.623Z,41.83
2023-01-13T20:29:31.632Z,36.92
2023-01-13T20:32:10.473Z,38.40
2023-01-13T20:34:40.581Z,37.72
2023-01-13T20:37:14.594Z,36.45
2023-01-13T20:39:51.203Z,35.85
2023-01-13T20:42:30.918Z,37.28
2023-01-13T20:45:10.286Z,36.88
2023-01-13T20:47:42.418Z,37.88
2023-01-13T20:50:11.932Z,37.95
2023-01-13T20:52:50.093Z,38.45
2023-01-13T20:55:26.899Z,35.60
2023-01-13T20:58:09.234Z,38.25
2023-01-13T21:00:45.111Z,38.00
2023-01-13T21:03:25.436Z,37.95
2023-01-13T21:05:57.110Z,29.08
2023-01-13T21:08:24.704Z,29.33
2023-01-13T21:11:14.068Z,37.25
2023-01-13T21:14:08.014Z,37.05
2023-01-13T21:16:44.795Z,30.30
2023-01-13T21:19:24.118Z,37.40
2023-01-13T21:22:04.745Z,37.85
2023-01-13T21:24:45.115Z,36.25
2023-01-13T21:27:25.042Z,36.90
2023-01-13T21:29:53.169Z,33.85
2023-01-13T21:32:36.467Z,37.10
2023-01-13T21:35:07.297Z,36.28
2023-01-13T21:37:43.355Z,37.65
2023-01-13T21:40:17.860Z,37.13
2023-01-13T21:43:08.336Z,32.22
2023-01-13T21:46:04.734Z,32.45
2023-01-13T21:48:43.163Z,35.70
2023-01-13T21:51:20.915Z,38.92
2023-01-13T21:53:54.771Z,38.30
2023-01-13T21:56:33.492Z,38.47
2023-01-13T21:59:08.034Z,38.42
2023-01-13T22:02:23.022Z,35.60
2023-01-13T22:04:46.249Z,39.47
2023-01-13T22:07:27.260Z,39.60
2023-01-13T22:10:01.162Z,39.35
2023-01-13T22:12:29.724Z,39.70
2023-01-13T22:15:04.376Z,40.55
2023-01-13T22:17:37.539Z,40.08
2023-01-13T22:20:22.629Z,39.97
2023-01-13T22:22:52.366Z,39.35
2023-01-13T22:25:29.837Z,31.48
2023-01-13T22:28:10.641Z,32.33
2023-01-13T22:30:39.844Z,35.53
2023-01-13T22:33:06.940Z,32.85
2023-01-13T22:35:34.708Z,33.70
2023-01-13T22:38:04.465Z,34.90
2023-01-13T22:40:31.661Z,35.25
2023-01-13T22:43:01.707Z,33.60
2023-01-13T22:45:28.626Z,34.78
2023-01-13T22:48:03.353Z,34.22
2023-01-13T22:50:39.838Z,34.15
2023-01-13T22:53:11.872Z,36.25
2023-01-13T22:55:38.855Z,35.75
2023-01-13T22:58:21.135Z,35.55
2023-01-13T23:00:50.285Z,29.20
2023-01-13T23:03:23.934Z,34.47
2023-01-13T23:06:05.548Z,37.63
2023-01-13T23:08:43.233Z,35.90
2023-01-13T23:11:12.779Z,37.72
2023-01-13T23:13:42.959Z,25.83
2023-01-13T23:16:20.395Z,36.10
2023-01-13T23:18:49.226Z,37.42
2023-01-13T23:21:40.223Z,38.72
2023-01-13T23:24:22.252Z,37.00
2023-01-13T23:26:56.010Z,38.63
2023-01-13T23:29:39.444Z,39.90
2023-01-13T23:32:23.162Z,32.95
2023-01-13T23:41:14.084Z,39.67
2023-01-13T23:44:07.034Z,34.90
2023-01-13T23:46:53.495Z,37.20
2023-01-13T23:49:31.518Z,38.20
2023-01-13T23:52:11.876Z,40.05
2023-01-13T23:54:43.353Z,39.80
2023-01-13T23:57:15.166Z,38.08
2023-01-13T23:59:48.192Z,40.63
